createdAt,value
2023-03-01T00:00:48.008Z,-0.8
2023-03-01T00:06:48.965Z,-0.8
2023-03-01T00:12:52.464Z,-0.9
2023-03-01T00:18:45.099Z,-0.8
2023-03-01T00:24:42.015Z,-0.8
2023-03-01T00:30:34.160Z,-1
2023-03-01T00:36:38.256Z,-0.8
2023-03-01T00:42:36.326Z,-1.2
2023-03-01T00:48:36.060Z,-0.9
2023-03-01T00:54:27.987Z,-1.2
2023-03-01T01:00:23.487Z,-1.3
2023-03-01T01:06:41.341Z,-1.2
2023-03-01T01:31:42.476Z,-1.4
2023-03-01T01:37:37.043Z,-1.4
2023-03-01T01:44:03.315Z,-1.5
2023-03-01T01:50:07.634Z,-1.4
2023-03-01T02:08:30.718Z,-1.4
2023-03-01T02:14:22.409Z,-1.6
2023-03-01T02:20:17.244Z,-1.7
2023-03-01T02:26:09.014Z,-1.8
2023-03-01T02:32:02.214Z,-1.6
2023-03-01T02:44:10.882Z,-1.7
2023-03-01T03:09:17.418Z,-1.7
2023-03-01T03:15:34.497Z,-2.1
2023-03-01T03:27:52.181Z,-2.4
2023-03-01T03:53:43.940Z,-2.4
2023-03-01T03:59:47.871Z,-2.5
2023-03-01T04:19:09.568Z,-2.6
2023-03-01T04:49:48.916Z,-2.5
2023-03-01T04:55:50.400Z,-2.6
2023-03-01T05:02:07.241Z,-2.6
2023-03-01T05:14:09.506Z,-2.6
2023-03-01T05:20:34.425Z,-2.7
2023-03-01T05:34:17.788Z,-2.8
2023-03-01T05:40:23.371Z,-2.6
2023-03-01T05:46:31.415Z,-2.9
2023-03-01T07:10:07.332Z,-3
2023-03-01T07:16:41.232Z,-2.9
2023-03-01T07:22:37.740Z,-2.8
2023-03-01T07:28:38.796Z,-2.7
2023-03-01T07:34:32.497Z,-2.7
2023-03-01T07:40:24.108Z,-2.5
2023-03-01T07:46:15.194Z,-2.3
2023-03-01T07:52:06.484Z,-2.6
2023-03-01T07:57:57.620Z,-2.4
2023-03-01T08:03:49.376Z,-2.3
2023-03-01T08:09:52.089Z,-2.2
2023-03-01T08:15:42.408Z,-2.2
2023-03-01T08:21:32.477Z,-2.1
2023-03-01T08:27:23.988Z,-1.9
2023-03-01T08:33:14.069Z,-1.7
2023-03-01T08:39:03.912Z,-1.6
2023-03-01T08:44:53.420Z,-1.4
2023-03-01T08:50:43.055Z,-1.3
2023-03-01T08:56:33.289Z,-1.1
2023-03-01T09:02:23.919Z,-1
2023-03-01T09:08:15.516Z,-0.8
2023-03-01T09:14:07.095Z,-0.5
2023-03-01T09:19:57.042Z,-0.3
2023-03-01T09:25:46.594Z,-0.2
2023-03-01T09:31:37.970Z,0
2023-03-01T09:37:31.628Z,0.3
2023-03-01T09:43:22.169Z,0.7
2023-03-01T09:49:15.519Z,0.8
2023-03-01T09:55:14.142Z,1
2023-03-01T10:01:09.904Z,1.3
2023-03-01T10:07:01.630Z,1.3
2023-03-01T10:12:58.501Z,1.6
2023-03-01T10:18:50.544Z,1.7
2023-03-01T10:30:34.819Z,2.1
2023-03-01T10:36:48.030Z,2.4
2023-03-01T10:42:38.935Z,2.4
2023-03-01T11:26:13.164Z,3.8
2023-03-01T11:32:24.789Z,4.2
2023-03-01T11:38:18.455Z,4.1
2023-03-01T11:44:17.892Z,4.1
2023-03-01T11:50:11.430Z,4.2
2023-03-01T11:56:15.953Z,4.5
2023-03-01T12:02:38.957Z,4.9
2023-03-01T12:08:54.272Z,4.9
2023-03-01T12:15:25.152Z,5
2023-03-01T12:53:20.046Z,6.2
2023-03-01T12:59:23.945Z,6
2023-03-01T13:05:17.644Z,6.3
2023-03-01T13:11:14.620Z,6.5
2023-03-01T13:17:09.482Z,6.7
2023-03-01T13:23:05.014Z,6.8
2023-03-01T13:29:02.587Z,6.7
2023-03-01T13:41:00.184Z,7
2023-03-01T13:59:26.899Z,7
2023-03-01T14:05:22.574Z,7.2
2023-03-01T14:17:20.225Z,7.4
2023-03-01T14:23:11.910Z,7.6
2023-03-01T14:35:08.528Z,7.7
2023-03-01T14:41:00.496Z,7.7
2023-03-01T14:47:00.802Z,7.9
2023-03-01T14:53:10.715Z,7.9
2023-03-01T14:59:02.530Z,8.1
2023-03-01T15:05:01.513Z,8
2023-03-01T15:10:57.592Z,8.2
2023-03-01T15:17:03.210Z,8.2
2023-03-01T15:22:55.690Z,8.3
2023-03-01T15:28:48.928Z,8.4
2023-03-01T15:34:41.477Z,8.5
2023-03-01T15:40:33.714Z,8.4
2023-03-01T15:46:26.061Z,8.5
2023-03-01T15:52:30.836Z,8.5
2023-03-01T15:58:22.473Z,8.5
2023-03-01T16:04:16.239Z,8.4
2023-03-01T16:16:30.042Z,8.4
2023-03-01T16:22:26.386Z,8.3
2023-03-01T16:28:16.858Z,8.3
2023-03-01T16:34:10.174Z,8.3
2023-03-01T16:40:03.751Z,8.2
2023-03-01T16:45:56.236Z,8.2
2023-03-01T16:51:47.466Z,8
2023-03-01T16:57:39.990Z,7.8
2023-03-01T17:03:32.435Z,7.8
2023-03-01T17:15:24.183Z,7.4
2023-03-01T17:21:21.774Z,7.4
2023-03-01T17:27:12.940Z,7.2
2023-03-01T17:45:22.532Z,6.8
2023-03-01T17:51:18.404Z,6.6
2023-03-01T18:03:13.524Z,5.9
2023-03-01T18:09:10.702Z,6
2023-03-01T18:15:09.132Z,6.1
2023-03-01T18:21:01.541Z,5.8
2023-03-01T18:28:16.294Z,5.3
2023-03-01T18:34:07.133Z,5.3
2023-03-01T18:46:17.408Z,5.1
2023-03-01T18:58:12.319Z,4.3
2023-03-01T19:04:05.639Z,4.2
2023-03-01T19:10:06.128Z,4
2023-03-01T19:16:04.941Z,4.1
2023-03-01T19:27:44.769Z,3.5
2023-03-01T19:34:02.336Z,3.5
2023-03-01T19:39:59.489Z,3.2
2023-03-01T19:46:02.596Z,3.3
2023-03-01T19:52:00.126Z,3.2
2023-03-01T19:57:54.293Z,3.1
2023-03-01T20:03:44.802Z,2.8
2023-03-01T20:09:39.159Z,2.7
2023-03-01T20:15:35.835Z,2.7
2023-03-01T20:27:32.562Z,2.5
2023-03-01T20:39:48.090Z,2.4
2023-03-01T20:45:37.659Z,2.5
2023-03-01T20:51:27.204Z,2.4
2023-03-01T20:57:15.441Z,2.1
2023-03-01T21:03:05.120Z,2
2023-03-01T21:08:53.924Z,2
2023-03-01T21:14:42.761Z,2
2023-03-01T21:20:33.199Z,2
2023-03-01T21:26:23.107Z,2.1
2023-03-01T21:32:13.380Z,1.7
2023-03-01T21:38:07.452Z,1.8
2023-03-01T21:43:57.582Z,1.6
2023-03-01T21:49:51.792Z,1.6
2023-03-01T21:55:44.575Z,1.5
2023-03-01T22:01:33.522Z,1.4
2023-03-01T22:07:24.370Z,1.5
2023-03-01T22:13:15.188Z,0.8
2023-03-01T22:19:07.004Z,1.3
2023-03-01T22:24:57.312Z,1.3
2023-03-01T22:30:50.050Z,1.4
2023-03-01T22:36:41.233Z,1.3
2023-03-01T22:42:40.775Z,1
2023-03-01T22:48:33.125Z,1.2
2023-03-01T22:54:26.948Z,1
2023-03-01T23:12:34.450Z,0.8
2023-03-01T23:37:28.644Z,0.6
